Tolar, New Mexico
Current Conditions -  °F | °C
As of 5:56 PM on Tuesday 25 Nov 2014 (Local Time) from K4MR Reporting Station
Clear Clear  
Wind Chill: 40°   Ceiling: Unl
Heat Index: 47°   Visibility: 10mi
Dew Point:   Wind: 18mph
Humidity: 17%   Direction: 260°W
Pressure: 30.08"   Gusts: 28mph
Location:  34.3861°N, 104.044°W
Report Text: K4MR 260056Z AUTO 26016G24KT 10SM CLR 08/M16 A3008 RMK AO2 PK WND 25028/33 SLP191 T00841157
Loading
Personal Weather Stations






























Interactive Weather Map New forecast layout! Learn more

10-Day Weather Forecast

Advertisements
Track Severe Weather on mobile